sensor_id;sensor_type;location;lat;lon;timestamp;pressure;altitude;pressure_sealevel;temperature;humidity
46392;BME280;32098;49.448;7.904;2023-07-22T00:01:30;98054.25;;;15.79;57.57
46392;BME280;32098;49.448;7.904;2023-07-22T00:03:58;98049.91;;;15.63;58.35
46392;BME280;32098;49.448;7.904;2023-07-22T00:06:25;98064.97;;;15.64;58.84
46392;BME280;32098;49.448;7.904;2023-07-22T00:08:54;98050.97;;;15.67;58.09
46392;BME280;32098;49.448;7.904;2023-07-22T00:11:20;98059.03;;;15.62;58.25
46392;BME280;32098;49.448;7.904;2023-07-22T00:13:47;98063.06;;;15.59;58.46
46392;BME280;32098;49.448;7.904;2023-07-22T00:16:14;98065.50;;;15.55;58.32
46392;BME280;32098;49.448;7.904;2023-07-22T00:18:40;98061.19;;;15.60;58.39
46392;BME280;32098;49.448;7.904;2023-07-22T00:21:07;98063.31;;;15.52;58.65
46392;BME280;32098;49.448;7.904;2023-07-22T00:23:35;98069.25;;;15.60;58.31
46392;BME280;32098;49.448;7.904;2023-07-22T00:26:02;98065.75;;;15.54;58.79
46392;BME280;32098;49.448;7.904;2023-07-22T00:28:29;98060.66;;;15.58;58.38
46392;BME280;32098;49.448;7.904;2023-07-22T00:30:56;98063.88;;;15.54;58.70
46392;BME280;32098;49.448;7.904;2023-07-22T00:33:24;98062.00;;;15.60;58.76
46392;BME280;32098;49.448;7.904;2023-07-22T00:35:50;98060.09;;;15.55;58.87
46392;BME280;32098;49.448;7.904;2023-07-22T00:38:18;98056.63;;;15.60;58.85
46392;BME280;32098;49.448;7.904;2023-07-22T00:40:45;98057.13;;;15.47;59.17
46392;BME280;32098;49.448;7.904;2023-07-22T00:43:12;98059.22;;;15.45;58.91
46392;BME280;32098;49.448;7.904;2023-07-22T00:45:39;98050.06;;;15.36;59.21
46392;BME280;32098;49.448;7.904;2023-07-22T00:48:05;98060.16;;;15.09;60.12
46392;BME280;32098;49.448;7.904;2023-07-22T00:50:33;98066.84;;;14.96;60.83
46392;BME280;32098;49.448;7.904;2023-07-22T00:52:59;98055.03;;;15.02;60.92
46392;BME280;32098;49.448;7.904;2023-07-22T00:55:27;98059.94;;;15.15;60.00
46392;BME280;32098;49.448;7.904;2023-07-22T00:57:54;98060.47;;;15.12;60.13
46392;BME280;32098;49.448;7.904;2023-07-22T01:00:22;98057.75;;;15.07;60.29
46392;BME280;32098;49.448;7.904;2023-07-22T01:02:48;98064.75;;;15.08;60.09
46392;BME280;32098;49.448;7.904;2023-07-22T01:05:16;98058.25;;;15.04;60.08
46392;BME280;32098;49.448;7.904;2023-07-22T01:07:43;98058.78;;;14.96;60.38
46392;BME280;32098;49.448;7.904;2023-07-22T01:10:12;98056.16;;;15.06;60.13
46392;BME280;32098;49.448;7.904;2023-07-22T01:12:39;98051.81;;;15.00;60.40
46392;BME280;32098;49.448;7.904;2023-07-22T01:15:06;98058.25;;;15.04;60.29
46392;BME280;32098;49.448;7.904;2023-07-22T01:17:37;98052.41;;;15.17;60.17
46392;BME280;32098;49.448;7.904;2023-07-22T01:20:04;98051.88;;;15.20;60.18
46392;BME280;32098;49.448;7.904;2023-07-22T01:22:33;98052.97;;;15.24;60.32
46392;BME280;32098;49.448;7.904;2023-07-22T01:25:00;98058.63;;;15.23;59.98
46392;BME280;32098;49.448;7.904;2023-07-22T01:27:27;98061.28;;;15.18;60.64
46392;BME280;32098;49.448;7.904;2023-07-22T01:29:54;98059.97;;;15.25;60.46
46392;BME280;32098;49.448;7.904;2023-07-22T01:32:20;98056.75;;;15.23;60.54
46392;BME280;32098;49.448;7.904;2023-07-22T01:34:47;98058.31;;;15.19;61.34
46392;BME280;32098;49.448;7.904;2023-07-22T01:37:14;98066.69;;;15.23;61.42
46392;BME280;32098;49.448;7.904;2023-07-22T01:39:40;98067.50;;;15.23;62.10
46392;BME280;32098;49.448;7.904;2023-07-22T01:42:07;98056.97;;;15.17;63.36
46392;BME280;32098;49.448;7.904;2023-07-22T01:44:33;98062.63;;;15.15;64.42
46392;BME280;32098;49.448;7.904;2023-07-22T01:47:03;98064.22;;;15.11;64.58
46392;BME280;32098;49.448;7.904;2023-07-22T01:49:29;98078.75;;;15.10;64.56
46392;BME280;32098;49.448;7.904;2023-07-22T01:51:56;98077.06;;;14.99;66.49
46392;BME280;32098;49.448;7.904;2023-07-22T01:54:23;98082.44;;;14.99;66.97
46392;BME280;32098;49.448;7.904;2023-07-22T01:56:49;98083.56;;;15.03;67.21
46392;BME280;32098;49.448;7.904;2023-07-22T01:59:16;98079.72;;;14.94;68.07
46392;BME280;32098;49.448;7.904;2023-07-22T02:01:43;98076.75;;;14.90;69.18
46392;BME280;32098;49.448;7.904;2023-07-22T02:04:10;98079.38;;;14.75;69.41
46392;BME280;32098;49.448;7.904;2023-07-22T02:06:37;98063.97;;;14.61;69.99
46392;BME280;32098;49.448;7.904;2023-07-22T02:09:04;98064.63;;;14.51;70.48
46392;BME280;32098;49.448;7.904;2023-07-22T02:11:35;98059.94;;;14.31;70.05
46392;BME280;32098;49.448;7.904;2023-07-22T02:14:02;98049.66;;;14.23;70.59
46392;BME280;32098;49.448;7.904;2023-07-22T02:16:37;98056.63;;;14.19;71.34
46392;BME280;32098;49.448;7.904;2023-07-22T02:19:04;98046.63;;;14.10;71.08
46392;BME280;32098;49.448;7.904;2023-07-22T02:21:38;98052.75;;;14.05;71.92
46392;BME280;32098;49.448;7.904;2023-07-22T02:24:05;98048.78;;;14.13;72.23
46392;BME280;32098;49.448;7.904;2023-07-22T02:26:32;98048.16;;;14.01;72.79
46392;BME280;32098;49.448;7.904;2023-07-22T02:28:58;98042.44;;;13.92;73.64
46392;BME280;32098;49.448;7.904;2023-07-22T02:31:25;98039.13;;;13.80;73.88
46392;BME280;32098;49.448;7.904;2023-07-22T02:33:52;98037.34;;;13.91;73.55
46392;BME280;32098;49.448;7.904;2023-07-22T02:36:18;98036.44;;;13.80;73.78
46392;BME280;32098;49.448;7.904;2023-07-22T02:38:45;98041.06;;;13.58;74.45
46392;BME280;32098;49.448;7.904;2023-07-22T02:41:12;98039.38;;;13.52;74.72
46392;BME280;32098;49.448;7.904;2023-07-22T02:43:38;98046.47;;;13.63;74.85
46392;BME280;32098;49.448;7.904;2023-07-22T02:46:06;98045.53;;;13.52;75.29
46392;BME280;32098;49.448;7.904;2023-07-22T02:48:34;98042.19;;;13.67;74.61
46392;BME280;32098;49.448;7.904;2023-07-22T02:51:05;98047.72;;;13.82;74.36
46392;BME280;32098;49.448;7.904;2023-07-22T02:53:32;98044.22;;;13.82;74.20
46392;BME280;32098;49.448;7.904;2023-07-22T02:55:59;98049.81;;;13.75;74.84
46392;BME280;32098;49.448;7.904;2023-07-22T02:58:26;98049.34;;;13.83;74.98
46392;BME280;32098;49.448;7.904;2023-07-22T03:00:53;98051.63;;;14.01;74.15
46392;BME280;32098;49.448;7.904;2023-07-22T03:03:19;98055.41;;;14.00;74.13
46392;BME280;32098;49.448;7.904;2023-07-22T03:05:46;98053.63;;;14.11;74.25
46392;BME280;32098;49.448;7.904;2023-07-22T03:08:14;98050.03;;;14.00;74.80
46392;BME280;32098;49.448;7.904;2023-07-22T03:10:40;98053.31;;;14.07;73.79
46392;BME280;32098;49.448;7.904;2023-07-22T03:13:07;98045.97;;;13.98;74.26
46392;BME280;32098;49.448;7.904;2023-07-22T03:15:33;98048.31;;;13.89;75.03
46392;BME280;32098;49.448;7.904;2023-07-22T03:18:00;98046.44;;;13.90;75.44
46392;BME280;32098;49.448;7.904;2023-07-22T03:20:27;98045.13;;;13.92;75.75
46392;BME280;32098;49.448;7.904;2023-07-22T03:22:54;98048.31;;;13.89;76.08
46392;BME280;32098;49.448;7.904;2023-07-22T03:25:21;98051.03;;;13.94;75.42
46392;BME280;32098;49.448;7.904;2023-07-22T03:27:47;98046.78;;;13.98;75.24
46392;BME280;32098;49.448;7.904;2023-07-22T03:30:16;98031.66;;;13.87;75.09
46392;BME280;32098;49.448;7.904;2023-07-22T03:32:47;98036.66;;;13.79;75.92
46392;BME280;32098;49.448;7.904;2023-07-22T03:35:14;98042.13;;;13.89;75.69
46392;BME280;32098;49.448;7.904;2023-07-22T03:37:41;98042.06;;;13.84;75.17
46392;BME280;32098;49.448;7.904;2023-07-22T03:40:08;98044.97;;;13.77;76.10
46392;BME280;32098;49.448;7.904;2023-07-22T03:42:41;98034.78;;;13.79;76.33
46392;BME280;32098;49.448;7.904;2023-07-22T03:45:08;98045.03;;;13.82;75.87
46392;BME280;32098;49.448;7.904;2023-07-22T03:47:38;98038.34;;;13.85;75.92
46392;BME280;32098;49.448;7.904;2023-07-22T03:50:06;98041.03;;;13.85;76.30
46392;BME280;32098;49.448;7.904;2023-07-22T03:52:33;98040.81;;;13.91;76.09
46392;BME280;32098;49.448;7.904;2023-07-22T03:55:00;98046.72;;;13.88;75.93
46392;BME280;32098;49.448;7.904;2023-07-22T03:57:27;98049.16;;;13.95;76.03
46392;BME280;32098;49.448;7.904;2023-07-22T03:59:55;98053.13;;;13.87;75.33
46392;BME280;32098;49.448;7.904;2023-07-22T04:02:22;98045.06;;;13.87;75.68
46392;BME280;32098;49.448;7.904;2023-07-22T04:04:51;98049.69;;;13.92;75.67
46392;BME280;32098;49.448;7.904;2023-07-22T04:07:17;98044.81;;;13.89;75.68
46392;BME280;32098;49.448;7.904;2023-07-22T04:09:44;98041.56;;;13.87;75.70
46392;BME280;32098;49.448;7.904;2023-07-22T04:12:11;98052.03;;;13.83;75.63
46392;BME280;32098;49.448;7.904;2023-07-22T04:14:38;98048.94;;;13.70;76.40
46392;BME280;32098;49.448;7.904;2023-07-22T04:17:05;98052.72;;;13.74;75.94
46392;BME280;32098;49.448;7.904;2023-07-22T04:19:31;98057.16;;;13.58;76.39
46392;BME280;32098;49.448;7.904;2023-07-22T04:21:58;98055.00;;;13.60;76.90
46392;BME280;32098;49.448;7.904;2023-07-22T04:24:25;98056.63;;;13.61;76.91
46392;BME280;32098;49.448;7.904;2023-07-22T04:26:52;98045.44;;;13.69;76.37
46392;BME280;32098;49.448;7.904;2023-07-22T04:29:18;98054.34;;;13.75;76.65
46392;BME280;32098;49.448;7.904;2023-07-22T04:31:46;98059.00;;;13.84;75.63
46392;BME280;32098;49.448;7.904;2023-07-22T04:34:12;98054.31;;;13.70;75.79
46392;BME280;32098;49.448;7.904;2023-07-22T04:36:39;98060.22;;;13.72;76.40
46392;BME280;32098;49.448;7.904;2023-07-22T04:39:06;98055.16;;;13.75;76.67
46392;BME280;32098;49.448;7.904;2023-07-22T04:41:34;98056.31;;;13.84;76.76
46392;BME280;32098;49.448;7.904;2023-07-22T04:44:00;98051.94;;;13.73;76.89
46392;BME280;32098;49.448;7.904;2023-07-22T04:46:27;98048.75;;;13.81;77.34
46392;BME280;32098;49.448;7.904;2023-07-22T04:48:54;98054.13;;;13.81;76.51
46392;BME280;32098;49.448;7.904;2023-07-22T04:51:21;98059.50;;;13.81;77.04
46392;BME280;32098;49.448;7.904;2023-07-22T04:53:48;98051.41;;;13.76;76.68
46392;BME280;32098;49.448;7.904;2023-07-22T04:56:14;98061.13;;;13.82;76.61
46392;BME280;32098;49.448;7.904;2023-07-22T04:58:41;98057.41;;;13.83;76.65
46392;BME280;32098;49.448;7.904;2023-07-22T05:01:07;98055.25;;;13.85;76.96
46392;BME280;32098;49.448;7.904;2023-07-22T05:03:35;98056.91;;;13.91;76.36
46392;BME280;32098;49.448;7.904;2023-07-22T05:06:02;98062.31;;;13.96;76.29
46392;BME280;32098;49.448;7.904;2023-07-22T05:08:28;98065.88;;;14.02;76.42
46392;BME280;32098;49.448;7.904;2023-07-22T05:10:55;98060.47;;;13.97;76.69
46392;BME280;32098;49.448;7.904;2023-07-22T05:13:21;98065.84;;;13.97;76.80
46392;BME280;32098;49.448;7.904;2023-07-22T05:15:48;98061.22;;;13.92;77.05
46392;BME280;32098;49.448;7.904;2023-07-22T05:18:15;98064.69;;;13.88;76.65
46392;BME280;32098;49.448;7.904;2023-07-22T05:20:41;98064.50;;;13.99;76.34
46392;BME280;32098;49.448;7.904;2023-07-22T05:23:08;98068.50;;;13.97;76.69
46392;BME280;32098;49.448;7.904;2023-07-22T05:25:34;98062.31;;;13.96;76.72
46392;BME280;32098;49.448;7.904;2023-07-22T05:28:01;98060.63;;;13.85;77.45
46392;BME280;32098;49.448;7.904;2023-07-22T05:30:28;98068.28;;;13.98;77.14
46392;BME280;32098;49.448;7.904;2023-07-22T05:33:01;98075.28;;;14.04;76.86
46392;BME280;32098;49.448;7.904;2023-07-22T05:35:28;98073.75;;;14.08;77.34
46392;BME280;32098;49.448;7.904;2023-07-22T05:37:55;98076.16;;;14.10;77.89
46392;BME280;32098;49.448;7.904;2023-07-22T05:40:21;98072.16;;;14.12;77.18
46392;BME280;32098;49.448;7.904;2023-07-22T05:42:48;98072.25;;;14.22;77.27
46392;BME280;32098;49.448;7.904;2023-07-22T05:45:14;98066.63;;;14.56;76.88
46392;BME280;32098;49.448;7.904;2023-07-22T05:47:42;98072.22;;;14.96;74.64
46392;BME280;32098;49.448;7.904;2023-07-22T05:50:09;98071.22;;;15.12;73.09
46392;BME280;32098;49.448;7.904;2023-07-22T05:52:36;98077.13;;;15.09;72.76
46392;BME280;32098;49.448;7.904;2023-07-22T05:55:03;98083.03;;;15.06;73.64
46392;BME280;32098;49.448;7.904;2023-07-22T05:57:31;98077.34;;;15.03;74.11
46392;BME280;32098;49.448;7.904;2023-07-22T05:59:57;98083.78;;;14.97;72.80
46392;BME280;32098;49.448;7.904;2023-07-22T06:02:40;98083.25;;;15.00;73.63
46392;BME280;32098;49.448;7.904;2023-07-22T06:05:07;98080.34;;;15.06;73.48
46392;BME280;32098;49.448;7.904;2023-07-22T06:07:34;98081.97;;;15.12;73.28
46392;BME280;32098;49.448;7.904;2023-07-22T06:10:00;98077.66;;;15.11;72.72
46392;BME280;32098;49.448;7.904;2023-07-22T06:12:27;98076.06;;;15.15;72.50
46392;BME280;32098;49.448;7.904;2023-07-22T06:14:54;98090.38;;;15.21;73.62
46392;BME280;32098;49.448;7.904;2023-07-22T06:17:20;98085.78;;;15.26;73.32
46392;BME280;32098;49.448;7.904;2023-07-22T06:19:47;98049.69;;;15.07;72.64
46392;BME280;32098;49.448;7.904;2023-07-22T06:22:14;98087.19;;;15.39;72.70
46392;BME280;32098;49.448;7.904;2023-07-22T06:24:41;98082.59;;;15.34;71.56
46392;BME280;32098;49.448;7.904;2023-07-22T06:27:07;98085.59;;;15.38;71.32
46392;BME280;32098;49.448;7.904;2023-07-22T06:29:34;98091.22;;;15.41;70.95
46392;BME280;32098;49.448;7.904;2023-07-22T06:32:01;98098.78;;;15.44;71.68
46392;BME280;32098;49.448;7.904;2023-07-22T06:34:27;98093.69;;;15.43;72.40
46392;BME280;32098;49.448;7.904;2023-07-22T06:36:54;98096.66;;;15.46;71.88
46392;BME280;32098;49.448;7.904;2023-07-22T06:39:20;98091.28;;;15.46;72.13
46392;BME280;32098;49.448;7.904;2023-07-22T06:41:47;98097.25;;;15.48;72.61
46392;BME280;32098;49.448;7.904;2023-07-22T06:44:13;98100.72;;;15.54;72.07
46392;BME280;32098;49.448;7.904;2023-07-22T06:46:40;98094.31;;;15.60;72.21
46392;BME280;32098;49.448;7.904;2023-07-22T06:49:07;98098.38;;;15.68;71.01
46392;BME280;32098;49.448;7.904;2023-07-22T06:51:34;98101.34;;;15.71;70.88
46392;BME280;32098;49.448;7.904;2023-07-22T06:54:02;98102.69;;;15.74;70.62
46392;BME280;32098;49.448;7.904;2023-07-22T06:56:29;98099.19;;;15.73;71.84
46392;BME280;32098;49.448;7.904;2023-07-22T06:58:55;98105.66;;;15.82;72.03
46392;BME280;32098;49.448;7.904;2023-07-22T07:01:23;98100.06;;;16.24;71.88
46392;BME280;32098;49.448;7.904;2023-07-22T07:03:49;98100.06;;;16.64;69.21
46392;BME280;32098;49.448;7.904;2023-07-22T07:06:16;98094.13;;;16.88;67.58
46392;BME280;32098;49.448;7.904;2023-07-22T07:08:43;98100.00;;;17.05;66.37
46392;BME280;32098;49.448;7.904;2023-07-22T07:11:09;98095.91;;;17.22;65.72
46392;BME280;32098;49.448;7.904;2023-07-22T07:13:36;98105.59;;;17.38;65.19
46392;BME280;32098;49.448;7.904;2023-07-22T07:18:54;98103.25;;;17.76;63.70
46392;BME280;32098;49.448;7.904;2023-07-22T07:21:22;98103.94;;;18.01;62.51
46392;BME280;32098;49.448;7.904;2023-07-22T07:23:48;98100.31;;;18.21;62.41
46392;BME280;32098;49.448;7.904;2023-07-22T07:26:15;98099.53;;;18.16;62.66
46392;BME280;32098;49.448;7.904;2023-07-22T07:28:46;98101.94;;;18.51;61.91
46392;BME280;32098;49.448;7.904;2023-07-22T07:31:13;98100.59;;;18.77;61.29
46392;BME280;32098;49.448;7.904;2023-07-22T07:33:40;98100.38;;;19.02;62.71
46392;BME280;32098;49.448;7.904;2023-07-22T07:36:06;98102.31;;;19.49;59.37
46392;BME280;32098;49.448;7.904;2023-07-22T07:38:33;98094.91;;;19.97;58.44
46392;BME280;32098;49.448;7.904;2023-07-22T07:41:04;98097.44;;;20.44;57.14
46392;BME280;32098;49.448;7.904;2023-07-22T07:43:31;98096.22;;;20.69;56.13
46392;BME280;32098;49.448;7.904;2023-07-22T07:46:28;98099.66;;;20.75;54.82
46392;BME280;32098;49.448;7.904;2023-07-22T07:48:57;98102.22;;;20.66;54.17
46392;BME280;32098;49.448;7.904;2023-07-22T07:51:25;98099.03;;;20.45;54.67
46392;BME280;32098;49.448;7.904;2023-07-22T07:53:54;98101.47;;;20.47;54.73
46392;BME280;32098;49.448;7.904;2023-07-22T07:56:22;98098.63;;;20.38;54.49
46392;BME280;32098;49.448;7.904;2023-07-22T07:58:50;98112.38;;;20.60;54.77
46392;BME280;32098;49.448;7.904;2023-07-22T08:01:17;98105.59;;;20.90;54.80
46392;BME280;32098;49.448;7.904;2023-07-22T08:03:44;98100.94;;;21.23;52.92
46392;BME280;32098;49.448;7.904;2023-07-22T08:06:12;98102.81;;;21.63;52.77
46392;BME280;32098;49.448;7.904;2023-07-22T08:08:39;98095.72;;;22.03;51.64
46392;BME280;32098;49.448;7.904;2023-07-22T08:11:09;98090.66;;;22.46;49.16
46392;BME280;32098;49.448;7.904;2023-07-22T08:13:36;98095.44;;;22.71;46.72
46392;BME280;32098;49.448;7.904;2023-07-22T08:16:04;98074.38;;;22.85;46.11
46392;BME280;32098;49.448;7.904;2023-07-22T08:18:32;98095.47;;;23.33;46.16
46392;BME280;32098;49.448;7.904;2023-07-22T08:20:59;98091.22;;;23.57;44.95
46392;BME280;32098;49.448;7.904;2023-07-22T08:23:26;98093.84;;;23.80;44.01
46392;BME280;32098;49.448;7.904;2023-07-22T08:25:52;98084.88;;;23.88;42.58
46392;BME280;32098;49.448;7.904;2023-07-22T08:28:19;98093.88;;;24.05;43.71
46392;BME280;32098;49.448;7.904;2023-07-22T08:30:47;98093.25;;;24.25;43.59
46392;BME280;32098;49.448;7.904;2023-07-22T08:33:15;98091.31;;;24.52;42.34
46392;BME280;32098;49.448;7.904;2023-07-22T08:35:56;98088.25;;;24.45;40.88
46392;BME280;32098;49.448;7.904;2023-07-22T08:38:23;98086.16;;;24.24;39.71
46392;BME280;32098;49.448;7.904;2023-07-22T08:40:50;98082.63;;;24.07;38.80
46392;BME280;32098;49.448;7.904;2023-07-22T08:43:21;98100.59;;;23.82;38.72
46392;BME280;32098;49.448;7.904;2023-07-22T08:45:49;98092.34;;;23.65;38.69
46392;BME280;32098;49.448;7.904;2023-07-22T08:48:17;98098.09;;;23.55;40.06
46392;BME280;32098;49.448;7.904;2023-07-22T08:50:48;98084.44;;;23.46;41.20
46392;BME280;32098;49.448;7.904;2023-07-22T08:53:15;98093.50;;;23.25;41.04
46392;BME280;32098;49.448;7.904;2023-07-22T08:55:42;98083.75;;;23.32;41.67
46392;BME280;32098;49.448;7.904;2023-07-22T08:58:09;98089.72;;;23.43;40.84
46392;BME280;32098;49.448;7.904;2023-07-22T09:00:38;98087.97;;;23.47;41.98
46392;BME280;32098;49.448;7.904;2023-07-22T09:03:05;98083.28;;;23.39;41.03
46392;BME280;32098;49.448;7.904;2023-07-22T09:05:33;98087.91;;;23.30;40.42
46392;BME280;32098;49.448;7.904;2023-07-22T09:08:04;98082.34;;;23.43;40.23
46392;BME280;32098;49.448;7.904;2023-07-22T09:10:31;98078.38;;;23.58;40.03
46392;BME280;32098;49.448;7.904;2023-07-22T09:12:59;98070.91;;;23.98;39.19
46392;BME280;32098;49.448;7.904;2023-07-22T09:15:26;98079.72;;;24.38;40.11
46392;BME280;32098;49.448;7.904;2023-07-22T09:17:53;98074.56;;;24.70;39.60
46392;BME280;32098;49.448;7.904;2023-07-22T09:20:20;98071.75;;;24.96;38.67
46392;BME280;32098;49.448;7.904;2023-07-22T09:22:49;98073.50;;;25.09;38.36
46392;BME280;32098;49.448;7.904;2023-07-22T09:25:28;98073.00;;;25.45;39.34
46392;BME280;32098;49.448;7.904;2023-07-22T09:27:58;98065.88;;;25.82;38.24
46392;BME280;32098;49.448;7.904;2023-07-22T09:30:30;98071.09;;;25.95;37.49
46392;BME280;32098;49.448;7.904;2023-07-22T09:32:58;98067.09;;;25.93;36.67
46392;BME280;32098;49.448;7.904;2023-07-22T09:35:30;98069.78;;;25.81;37.27
46392;BME280;32098;49.448;7.904;2023-07-22T09:37:58;98065.88;;;25.82;35.16
46392;BME280;32098;49.448;7.904;2023-07-22T09:40:26;98070.75;;;25.76;36.31
46392;BME280;32098;49.448;7.904;2023-07-22T09:43:01;98063.53;;;25.42;36.71
46392;BME280;32098;49.448;7.904;2023-07-22T09:45:30;98063.75;;;25.29;36.01
46392;BME280;32098;49.448;7.904;2023-07-22T09:47:58;98064.50;;;25.09;36.14
46392;BME280;32098;49.448;7.904;2023-07-22T09:50:26;98068.13;;;25.21;35.53
46392;BME280;32098;49.448;7.904;2023-07-22T09:52:54;98052.78;;;25.08;35.56
46392;BME280;32098;49.448;7.904;2023-07-22T09:55:27;98049.69;;;25.18;34.67
46392;BME280;32098;49.448;7.904;2023-07-22T09:58:04;98047.22;;;25.25;34.33
46392;BME280;32098;49.448;7.904;2023-07-22T10:00:36;98043.16;;;25.31;34.59
46392;BME280;32098;49.448;7.904;2023-07-22T10:03:04;98044.38;;;25.72;35.80
46392;BME280;32098;49.448;7.904;2023-07-22T10:05:35;98032.78;;;25.75;35.67
46392;BME280;32098;49.448;7.904;2023-07-22T10:08:03;98031.06;;;25.70;34.94
46392;BME280;32098;49.448;7.904;2023-07-22T10:10:38;98032.81;;;25.45;33.32
46392;BME280;32098;49.448;7.904;2023-07-22T10:13:05;98032.19;;;25.11;34.01
46392;BME280;32098;49.448;7.904;2023-07-22T10:15:33;98041.00;;;24.61;34.90
46392;BME280;32098;49.448;7.904;2023-07-22T10:18:01;98046.50;;;24.53;36.94
46392;BME280;32098;49.448;7.904;2023-07-22T10:20:29;98040.06;;;24.31;36.83
46392;BME280;32098;49.448;7.904;2023-07-22T10:22:56;98051.16;;;24.26;36.84
46392;BME280;32098;49.448;7.904;2023-07-22T10:25:24;98044.25;;;24.38;36.59
46392;BME280;32098;49.448;7.904;2023-07-22T10:27:52;98042.66;;;24.19;37.66
46392;BME280;32098;49.448;7.904;2023-07-22T10:30:19;98044.41;;;24.32;37.40
46392;BME280;32098;49.448;7.904;2023-07-22T10:32:48;98043.16;;;24.04;37.09
46392;BME280;32098;49.448;7.904;2023-07-22T10:35:24;98043.63;;;23.89;37.21
46392;BME280;32098;49.448;7.904;2023-07-22T10:38:10;98048.59;;;23.79;35.80
46392;BME280;32098;49.448;7.904;2023-07-22T10:40:50;98043.94;;;23.79;34.63
46392;BME280;32098;49.448;7.904;2023-07-22T10:43:18;98041.22;;;24.22;34.75
46392;BME280;32098;49.448;7.904;2023-07-22T10:45:51;98030.59;;;24.46;35.02
46392;BME280;32098;49.448;7.904;2023-07-22T10:48:19;98031.00;;;24.74;33.89
46392;BME280;32098;49.448;7.904;2023-07-22T10:50:47;98027.25;;;24.95;32.42
46392;BME280;32098;49.448;7.904;2023-07-22T11:06:30;98016.47;;;24.53;32.01
46392;BME280;32098;49.448;7.904;2023-07-22T11:08:57;98008.63;;;24.25;32.42
46392;BME280;32098;49.448;7.904;2023-07-22T11:11:37;98017.16;;;23.90;33.67
46392;BME280;32098;49.448;7.904;2023-07-22T11:14:19;98020.16;;;23.71;34.00
46392;BME280;32098;49.448;7.904;2023-07-22T11:16:47;98016.16;;;23.60;34.62
46392;BME280;32098;49.448;7.904;2023-07-22T11:19:15;98015.03;;;23.52;34.04
46392;BME280;32098;49.448;7.904;2023-07-22T11:21:43;98020.78;;;23.51;34.57
46392;BME280;32098;49.448;7.904;2023-07-22T11:24:09;98029.41;;;23.36;35.56
46392;BME280;32098;49.448;7.904;2023-07-22T11:26:38;98019.31;;;23.28;35.17
46392;BME280;32098;49.448;7.904;2023-07-22T11:29:06;98015.19;;;23.47;34.56
46392;BME280;32098;49.448;7.904;2023-07-22T11:31:34;98005.94;;;23.83;33.94
46392;BME280;32098;49.448;7.904;2023-07-22T11:34:04;98012.16;;;24.17;34.54
46392;BME280;32098;49.448;7.904;2023-07-22T11:36:31;98006.66;;;24.52;35.44
46392;BME280;32098;49.448;7.904;2023-07-22T11:39:08;97999.69;;;24.71;35.26
46392;BME280;32098;49.448;7.904;2023-07-22T11:41:37;98001.50;;;24.59;36.51
46392;BME280;32098;49.448;7.904;2023-07-22T11:44:05;97996.66;;;24.64;34.89
46392;BME280;32098;49.448;7.904;2023-07-22T11:46:51;97999.19;;;24.78;34.58
46392;BME280;32098;49.448;7.904;2023-07-22T11:49:55;97994.16;;;24.51;33.56
46392;BME280;32098;49.448;7.904;2023-07-22T11:52:16;97991.56;;;24.54;33.74
46392;BME280;32098;49.448;7.904;2023-07-22T11:54:46;98000.19;;;24.65;34.06
46392;BME280;32098;49.448;7.904;2023-07-22T11:57:18;98001.41;;;24.84;34.03
46392;BME280;32098;49.448;7.904;2023-07-22T11:59:46;97983.47;;;25.13;34.51
46392;BME280;32098;49.448;7.904;2023-07-22T12:02:17;97985.84;;;25.14;33.05
46392;BME280;32098;49.448;7.904;2023-07-22T12:04:57;97975.69;;;25.23;33.00
46392;BME280;32098;49.448;7.904;2023-07-22T12:07:27;97971.69;;;25.41;34.14
46392;BME280;32098;49.448;7.904;2023-07-22T12:09:56;97966.63;;;25.52;33.14
46392;BME280;32098;49.448;7.904;2023-07-22T12:12:44;97975.78;;;25.35;32.87
46392;BME280;32098;49.448;7.904;2023-07-22T12:18:03;97983.19;;;25.06;33.49
46392;BME280;32098;49.448;7.904;2023-07-22T12:20:33;97974.00;;;25.10;33.58
46392;BME280;32098;49.448;7.904;2023-07-22T12:23:01;97964.97;;;25.10;33.66
46392;BME280;32098;49.448;7.904;2023-07-22T12:25:27;97968.78;;;24.88;33.92
46392;BME280;32098;49.448;7.904;2023-07-22T12:27:54;97975.72;;;24.77;33.75
46392;BME280;32098;49.448;7.904;2023-07-22T12:30:21;97972.66;;;24.41;33.81
46392;BME280;32098;49.448;7.904;2023-07-22T12:32:47;97972.97;;;24.39;34.05
46392;BME280;32098;49.448;7.904;2023-07-22T12:35:15;97979.53;;;24.29;33.85
46392;BME280;32098;49.448;7.904;2023-07-22T12:37:42;97966.63;;;24.56;33.87
46392;BME280;32098;49.448;7.904;2023-07-22T12:40:09;97966.63;;;24.64;34.55
46392;BME280;32098;49.448;7.904;2023-07-22T12:42:37;97970.72;;;24.79;33.69
46392;BME280;32098;49.448;7.904;2023-07-22T12:45:04;97963.25;;;24.59;33.68
46392;BME280;32098;49.448;7.904;2023-07-22T12:47:31;97966.47;;;24.61;34.06
46392;BME280;32098;49.448;7.904;2023-07-22T12:49:58;97964.91;;;24.34;33.80
46392;BME280;32098;49.448;7.904;2023-07-22T12:52:25;97971.66;;;24.36;33.40
46392;BME280;32098;49.448;7.904;2023-07-22T12:54:51;97963.00;;;24.34;33.99
46392;BME280;32098;49.448;7.904;2023-07-22T12:57:18;97958.34;;;24.26;34.40
46392;BME280;32098;49.448;7.904;2023-07-22T12:59:45;97957.72;;;24.29;34.14
46392;BME280;32098;49.448;7.904;2023-07-22T13:02:14;97959.38;;;24.05;34.02
46392;BME280;32098;49.448;7.904;2023-07-22T13:04:40;97968.38;;;23.97;34.10
46392;BME280;32098;49.448;7.904;2023-07-22T13:07:07;97923.44;;;23.86;34.37
46392;BME280;32098;49.448;7.904;2023-07-22T13:09:34;97962.69;;;24.27;34.30
46392;BME280;32098;49.448;7.904;2023-07-22T13:12:00;97947.72;;;24.51;34.08
46392;BME280;32098;49.448;7.904;2023-07-22T13:14:27;97948.94;;;24.70;34.04
46392;BME280;32098;49.448;7.904;2023-07-22T13:16:53;97961.81;;;24.61;33.26
46392;BME280;32098;49.448;7.904;2023-07-22T13:19:20;97946.66;;;24.72;32.99
46392;BME280;32098;49.448;7.904;2023-07-22T13:21:46;97949.94;;;24.57;33.18
46392;BME280;32098;49.448;7.904;2023-07-22T13:24:13;97943.69;;;24.57;33.42